Terminal Aerodrome Forecast
Issued by NWS Columbia, SC

Home | Current Version | Previous Version | Text Only | Print | Product List | Glossary On
Versions: 1 2 3 4 5 6 7 8 9 10 11 12 13 14 15 16 17 18 19 20 21 22 23 24 25 26 27 28 29 30
000
FTUS42 KCAE 221727
TAFCAE
TAF
KCAE 221727Z 2218/2318 11010KT P6SM BKN050 OVC080
     FM230300 11010KT P6SM -SHRA OVC025
     FM230800 10012KT 5SM -RA OVC020 WS015/12040KT
     FM231400 10012G18KT 4SM -SHRA BR OVC015=

USA.gov is the U.S. government's official web portal to all federal, state and local government web resources and services.